Time;durP1;ratioP1;P1;durP2;ratioP2;P2;SDS_P1;SDS_P2;PMS_P1;PMS_P2;Temp;Humidity;BMP_temperature;BMP_pressure;BME280_temperature;BME280_humidity;BME280_pressure;Samples;Min_cycle;Max_cycle;Signal;HPM_P1;HPM_P2
2024/03/30 00:01:47;;;;;;;3.58;1.25;;;;;;;10.26;97.72;99063.53;5027627;28;20048;-62
2024/03/30 00:04:14;;;;;;;3.28;1.40;;;;;;;10.42;97.82;99065.19;5065305;28;20053;-63
2024/03/30 00:06:41;;;;;;;3.90;1.50;;;;;;;10.51;97.76;99060.31;5049395;28;20064;-63
2024/03/30 00:09:07;;;;;;;5.10;1.80;;;;;;;10.57;97.69;99052.59;5067600;28;20044;-63
2024/03/30 00:11:34;;;;;;;6.43;1.67;;;;;;;10.59;97.55;99053.03;5046833;28;20048;-63
2024/03/30 00:14:00;;;;;;;5.40;1.80;;;;;;;10.45;98.96;99053.47;5047773;28;20053;-63
2024/03/30 00:16:27;;;;;;;8.60;2.13;;;;;;;10.65;98.20;99046.91;5056751;28;20052;-63
2024/03/30 00:18:53;;;;;;;4.95;1.98;;;;;;;10.45;98.16;99047.16;5035578;28;20456;-63
2024/03/30 00:21:20;;;;;;;3.67;1.50;;;;;;;10.32;98.66;99051.13;5061129;28;20048;-63
2024/03/30 00:23:46;;;;;;;4.72;1.80;;;;;;;10.54;98.25;99045.84;5067083;28;20048;-63
2024/03/30 00:26:12;;;;;;;4.68;1.75;;;;;;;10.39;99.02;99043.06;5049081;28;20052;-63
2024/03/30 00:28:39;;;;;;;3.20;1.42;;;;;;;10.32;99.90;99043.66;5066610;28;20087;-62
2024/03/30 00:31:05;;;;;;;5.78;1.77;;;;;;;10.26;99.39;99036.81;5067263;28;20040;-62
2024/03/30 00:33:31;;;;;;;4.38;1.30;;;;;;;10.35;99.27;99029.22;5044183;28;20167;-61
2024/03/30 00:35:57;;;;;;;4.93;2.10;;;;;;;10.56;98.88;99031.72;5049665;28;20067;-62
2024/03/30 00:38:24;;;;;;;4.30;1.38;;;;;;;10.16;98.61;99026.34;5067340;28;20059;-63
2024/03/30 00:40:51;;;;;;;6.22;2.03;;;;;;;10.18;99.57;99029.53;5065879;28;20048;-62
2024/03/30 00:43:17;;;;;;;5.10;1.52;;;;;;;10.19;98.96;99031.13;5067399;28;20056;-61
2024/03/30 00:45:44;;;;;;;6.05;1.55;;;;;;;10.18;98.25;99018.53;5066125;28;20052;-62
2024/03/30 00:48:11;;;;;;;2.72;0.98;;;;;;;9.85;98.13;99027.00;5054452;28;20057;-62
2024/03/30 00:50:37;;;;;;;3.60;1.10;;;;;;;10.09;97.61;99020.66;5046721;28;20045;-63
2024/03/30 00:53:04;;;;;;;4.20;1.15;;;;;;;9.90;97.95;99015.75;5029898;28;20060;-63
2024/03/30 00:55:30;;;;;;;4.07;1.15;;;;;;;9.94;98.86;99019.41;5062494;28;20048;-62
2024/03/30 00:57:57;;;;;;;4.47;1.52;;;;;;;10.09;98.60;99012.38;5050265;28;20079;-63
2024/03/30 01:00:24;;;;;;;3.53;1.42;;;;;;;10.01;97.40;98999.53;5064624;28;20044;-63
2024/03/30 01:02:50;;;;;;;2.88;1.10;;;;;;;9.91;98.18;98994.56;5037232;28;20060;-62
2024/03/30 01:05:18;;;;;;;3.38;1.10;;;;;;;9.86;98.24;98994.81;5063519;28;20056;-62
2024/03/30 01:07:45;;;;;;;3.03;1.30;;;;;;;9.83;98.39;98988.03;5051194;28;20053;-62
2024/03/30 01:10:12;;;;;;;3.03;1.00;;;;;;;9.89;98.59;98983.09;5066606;28;20040;-63
2024/03/30 01:12:39;;;;;;;4.93;1.23;;;;;;;9.92;98.55;98987.91;5066735;28;20526;-62
2024/03/30 01:15:06;;;;;;;3.40;1.13;;;;;;;10.07;98.56;98981.66;5045803;28;20463;-62
2024/03/30 01:17:34;;;;;;;4.38;1.27;;;;;;;10.12;97.95;98978.66;5061059;28;20052;-63
2024/03/30 01:20:07;;;;;;;4.53;1.17;;;;;;;9.89;96.80;98981.16;5046103;28;20064;-62
2024/03/30 01:22:34;;;;;;;4.03;0.80;;;;;;;9.74;98.05;98981.13;5044316;28;20044;-62
2024/03/30 01:25:02;;;;;;;4.05;0.80;;;;;;;9.89;98.25;98977.59;5049565;28;20060;-62
2024/03/30 01:27:29;;;;;;;2.15;0.90;;;;;;;9.74;97.83;98970.13;5064998;28;20053;-62
2024/03/30 01:30:22;;;;;;;1.73;0.80;;;;;;;9.43;98.79;98951.53;5050056;28;20057;-62
2024/03/30 01:32:49;;;;;;;2.75;0.80;;;;;;;9.54;99.85;98955.41;5043767;28;20065;-62
2024/03/30 01:35:15;;;;;;;1.95;0.82;;;;;;;9.72;99.16;98956.72;5045782;28;20044;-62
2024/03/30 01:37:42;;;;;;;1.98;0.70;;;;;;;9.72;98.24;98953.16;5051427;28;20589;-61
2024/03/30 01:40:08;;;;;;;2.88;0.77;;;;;;;9.66;98.36;98952.63;5066387;28;20044;-62
2024/03/30 01:42:36;;;;;;;3.60;0.68;;;;;;;9.97;97.76;98951.91;5052180;28;20064;-62
2024/03/30 01:45:03;;;;;;;2.80;0.90;;;;;;;9.69;96.96;98948.38;5050163;28;20056;-62
2024/03/30 01:47:30;;;;;;;3.75;0.90;;;;;;;9.44;98.20;98942.16;5066200;28;20060;-62
2024/03/30 01:49:57;;;;;;;4.93;1.00;;;;;;;9.34;100.00;98941.88;5035669;28;20053;-62
2024/03/30 01:52:26;;;;;;;5.10;0.90;;;;;;;9.54;100.00;98940.88;5046582;28;21027;-63
2024/03/30 01:54:53;;;;;;;3.80;0.90;;;;;;;9.37;99.14;98938.41;5029899;28;20083;-61
2024/03/30 01:57:20;;;;;;;2.50;1.00;;;;;;;9.51;99.78;98939.63;5026676;28;20697;-62
2024/03/30 01:59:47;;;;;;;1.88;0.60;;;;;;;9.36;99.04;98934.06;5065447;28;20695;-61
2024/03/30 02:02:14;;;;;;;2.00;0.77;;;;;;;9.41;99.51;98934.63;5049420;28;20053;-62
2024/03/30 02:04:41;;;;;;;4.70;0.82;;;;;;;9.52;99.01;98932.19;5067649;28;20068;-63
2024/03/30 02:07:08;;;;;;;3.72;0.70;;;;;;;9.64;99.30;98932.13;5036538;28;20459;-62
2024/03/30 02:09:35;;;;;;;2.05;0.57;;;;;;;9.66;99.15;98930.63;5053345;28;20052;-62
2024/03/30 02:12:01;;;;;;;2.42;0.70;;;;;;;9.39;99.73;98931.44;5053401;28;20373;-63
2024/03/30 02:14:29;;;;;;;3.15;0.70;;;;;;;9.58;99.18;98939.03;5070143;28;20056;-63
2024/03/30 02:16:55;;;;;;;2.08;0.60;;;;;;;9.40;99.54;98927.53;5056676;28;20057;-62
2024/03/30 02:19:22;;;;;;;4.18;0.60;;;;;;;9.39;99.73;98925.13;5049552;28;20057;-62
2024/03/30 02:21:49;;;;;;;5.10;0.88;;;;;;;9.27;100.00;98927.91;5033417;28;20057;-61
2024/03/30 02:24:15;;;;;;;1.48;0.75;;;;;;;9.41;100.00;98929.13;5049760;28;20059;-62
2024/03/30 02:26:41;;;;;;;3.20;0.90;;;;;;;9.38;100.00;98934.53;5000007;28;20065;-63
2024/03/30 02:29:10;;;;;;;3.88;0.90;;;;;;;9.31;100.00;98931.56;5049818;28;20060;-63
2024/03/30 02:31:36;;;;;;;1.80;0.85;;;;;;;9.37;100.00;98932.91;5049834;28;20052;-63
2024/03/30 02:34:03;;;;;;;2.17;0.70;;;;;;;9.56;100.00;98928.38;5051114;28;20049;-63
2024/03/30 02:36:32;;;;;;;1.85;0.73;;;;;;;9.42;100.00;98922.47;5034294;28;20440;-62
2024/03/30 02:38:58;;;;;;;2.08;0.80;;;;;;;9.26;100.00;98923.59;5049759;28;20057;-62
2024/03/30 02:41:24;;;;;;;2.60;0.50;;;;;;;9.49;100.00;98925.44;5064484;28;20052;-62
2024/03/30 02:43:54;;;;;;;4.53;0.82;;;;;;;9.58;99.18;98925.28;5066307;28;20071;-63
2024/03/30 02:46:21;;;;;;;1.88;0.70;;;;;;;9.53;99.63;98926.34;5069204;28;20550;-62
2024/03/30 02:48:47;;;;;;;2.50;0.82;;;;;;;9.37;100.00;98924.66;5063669;28;20060;-63
2024/03/30 02:51:13;;;;;;;2.50;0.50;;;;;;;9.15;100.00;98930.69;5048430;28;20048;-62
2024/03/30 02:53:39;;;;;;;2.22;0.77;;;;;;;8.97;100.00;98924.66;5055059;28;20424;-62
2024/03/30 02:56:06;;;;;;;4.68;0.80;;;;;;;9.06;100.00;98930.84;5049280;28;20051;-63
2024/03/30 02:58:32;;;;;;;2.20;0.70;;;;;;;9.04;100.00;98922.13;5048978;28;20049;-62
2024/03/30 03:00:58;;;;;;;1.80;0.60;;;;;;;9.22;100.00;98920.72;5048770;28;20052;-62
2024/03/30 03:03:25;;;;;;;2.55;0.70;;;;;;;9.33;100.00;98915.53;5046050;28;20807;-63
2024/03/30 03:05:55;;;;;;;2.33;0.70;;;;;;;9.21;100.00;98921.84;5048277;28;20060;-63
2024/03/30 03:08:24;;;;;;;2.92;0.70;;;;;;;8.97;100.00;98914.50;5031684;28;20048;-63
2024/03/30 03:10:51;;;;;;;2.95;0.75;;;;;;;8.92;100.00;98917.47;5061366;28;20554;-62
2024/03/30 03:13:17;;;;;;;3.38;0.75;;;;;;;9.16;100.00;98921.31;5054839;28;20064;-62
2024/03/30 03:15:43;;;;;;;2.70;1.05;;;;;;;9.23;100.00;98914.06;5054109;28;20060;-62
2024/03/30 03:18:09;;;;;;;2.90;0.90;;;;;;;9.44;100.00;98922.13;5051926;28;20044;-61
2024/03/30 03:20:36;;;;;;;3.95;1.20;;;;;;;9.76;100.00;98907.34;5068493;28;20532;-62
2024/03/30 03:23:02;;;;;;;3.20;0.77;;;;;;;9.45;100.00;98910.00;5052238;28;20052;-62
2024/03/30 03:25:29;;;;;;;2.35;0.80;;;;;;;9.64;100.00;98908.19;5051263;28;20052;-62
2024/03/30 03:27:55;;;;;;;3.75;0.77;;;;;;;9.77;100.00;98903.41;5051786;28;20605;-62
2024/03/30 03:30:21;;;;;;;3.35;0.85;;;;;;;9.90;99.19;98902.22;5067786;28;20037;-62
2024/03/30 03:32:48;;;;;;;3.03;1.00;;;;;;;9.90;98.81;98907.72;5062148;28;20063;-62
2024/03/30 03:35:14;;;;;;;1.42;0.73;;;;;;;9.42;99.34;98903.25;5048342;28;20060;-62
2024/03/30 03:37:41;;;;;;;1.40;0.70;;;;;;;9.57;99.72;98905.22;5054489;28;20192;-62
2024/03/30 03:40:07;;;;;;;2.42;0.68;;;;;;;9.43;100.00;98907.59;5051267;28;20049;-61
2024/03/30 03:42:34;;;;;;;3.03;0.50;;;;;;;9.26;100.00;98893.38;5066889;28;20492;-62
2024/03/30 03:45:00;;;;;;;3.08;1.02;;;;;;;9.56;97.74;98886.34;5068110;28;20067;-62
2024/03/30 03:47:26;;;;;;;2.78;0.80;;;;;;;9.04;100.00;98887.25;5068619;28;20056;-62
2024/03/30 03:49:53;;;;;;;3.10;0.63;;;;;;;9.13;100.00;98887.88;5066796;28;20052;-62
2024/03/30 03:52:19;;;;;;;1.80;0.60;;;;;;;9.19;100.00;98893.16;5068030;28;20048;-62
2024/03/30 03:54:45;;;;;;;2.33;0.50;;;;;;;9.42;100.00;98891.44;5067833;28;20048;-62
2024/03/30 03:57:12;;;;;;;3.05;0.70;;;;;;;9.47;99.13;98891.19;5051484;28;20060;-62
2024/03/30 03:59:38;;;;;;;5.40;0.73;;;;;;;9.41;99.56;98893.41;5050206;28;20068;-61
2024/03/30 04:02:04;;;;;;;1.02;0.55;;;;;;;9.30;99.61;98884.06;5067853;28;20408;-62
2024/03/30 04:04:30;;;;;;;1.70;0.60;;;;;;;9.16;100.00;98878.16;5051368;28;20555;-63
2024/03/30 04:07:00;;;;;;;1.90;0.65;;;;;;;9.57;100.00;98868.72;5067871;28;20539;-62
2024/03/30 04:09:26;;;;;;;1.50;0.50;;;;;;;9.26;99.88;98874.91;5054510;28;20056;-62
2024/03/30 04:11:52;;;;;;;1.67;0.60;;;;;;;9.02;100.00;98877.75;5046900;28;20523;-62
2024/03/30 04:14:19;;;;;;;2.45;0.80;;;;;;;9.33;100.00;98877.84;5047590;28;20543;-62
2024/03/30 04:16:45;;;;;;;1.42;0.77;;;;;;;9.68;100.00;98875.28;5061736;28;20083;-62
2024/03/30 04:19:17;;;;;;;2.35;0.93;;;;;;;9.56;99.00;98875.34;5067309;28;20056;-62
2024/03/30 04:21:44;;;;;;;3.70;1.20;;;;;;;9.55;99.26;98865.53;5051949;28;20607;-62
2024/03/30 04:24:14;;;;;;;1.67;0.80;;;;;;;9.91;99.25;98868.06;5065945;28;20063;-62
2024/03/30 04:26:40;;;;;;;2.17;0.70;;;;;;;9.85;97.58;98872.22;5066611;28;20061;-62
2024/03/30 04:29:07;;;;;;;1.55;0.63;;;;;;;9.88;97.99;98872.31;5050724;28;20064;-62
2024/03/30 04:31:33;;;;;;;1.85;0.57;;;;;;;9.74;96.71;98869.19;5056882;28;20437;-63
2024/03/30 04:33:59;;;;;;;2.47;0.75;;;;;;;9.69;96.83;98860.41;5030047;28;20061;-62
2024/03/30 04:36:25;;;;;;;1.45;0.60;;;;;;;9.29;98.17;98856.94;5051682;28;20045;-62
2024/03/30 04:38:52;;;;;;;1.90;0.70;;;;;;;9.12;99.36;98852.53;5044557;28;20736;-62
2024/03/30 04:41:18;;;;;;;2.85;0.60;;;;;;;9.14;100.00;98858.47;5066207;28;20040;-62
2024/03/30 04:43:44;;;;;;;3.70;0.90;;;;;;;9.01;100.00;98852.22;5050186;28;20053;-62
2024/03/30 04:46:12;;;;;;;1.73;0.52;;;;;;;8.99;100.00;98856.47;5050256;28;20052;-62
2024/03/30 04:48:38;;;;;;;1.15;0.70;;;;;;;8.89;100.00;98870.69;5067115;28;20048;-62
2024/03/30 04:51:04;;;;;;;2.38;0.70;;;;;;;9.07;100.00;98874.75;5066695;28;20037;-62
2024/03/30 04:53:35;;;;;;;5.43;1.10;;;;;;;8.89;100.00;98885.22;5067364;28;20044;-62
2024/03/30 04:56:06;;;;;;;;;;;;;;;8.97;100.00;98881.53;5066402;28;20059;-61
2024/03/30 04:58:33;;;;;;;2.55;0.90;;;;;;;9.10;100.00;98882.28;5083661;28;19935;-62
2024/03/30 05:01:03;;;;;;;1.92;0.90;;;;;;;9.11;100.00;98878.41;5067033;28;20048;-63
2024/03/30 05:03:29;;;;;;;;;;;;;;;8.96;100.00;98899.16;5048448;28;20048;-62
2024/03/30 05:05:56;;;;;;;5.28;1.30;;;;;;;9.03;100.00;98909.56;5061379;28;19955;-62
2024/03/30 05:08:23;;;;;;;2.50;1.42;;;;;;;9.22;100.00;98908.94;5050423;28;20060;-63
2024/03/30 05:10:52;;;;;;;2.42;1.30;;;;;;;9.03;100.00;98909.56;5066607;28;20055;-63
2024/03/30 05:13:22;;;;;;;3.10;1.48;;;;;;;8.99;100.00;98905.91;5066688;28;20056;-63
2024/03/30 05:15:48;;;;;;;4.30;1.90;;;;;;;9.16;100.00;98913.88;5053499;28;20060;-62
2024/03/30 05:18:15;;;;;;;3.20;1.90;;;;;;;9.17;100.00;98914.69;5049477;28;20065;-63
2024/03/30 05:20:49;;;;;;;4.78;1.98;;;;;;;9.24;100.00;98923.13;5049703;28;20546;-62
2024/03/30 05:23:18;;;;;;;3.40;1.90;;;;;;;9.16;100.00;98926.78;5066605;28;20044;-63
2024/03/30 05:25:45;;;;;;;3.67;2.10;;;;;;;9.27;100.00;98930.66;5066602;28;20423;-63
2024/03/30 05:28:14;;;;;;;3.72;2.30;;;;;;;9.18;100.00;98927.25;5051359;28;20057;-63
2024/03/30 05:30:40;;;;;;;4.75;2.08;;;;;;;9.12;100.00;98934.16;5047943;28;20083;-64
2024/03/30 05:33:08;;;;;;;4.07;2.40;;;;;;;9.31;100.00;98932.34;5066697;28;20057;-62
2024/03/30 05:35:36;;;;;;;3.63;2.03;;;;;;;9.24;100.00;98934.88;5052592;28;20654;-63
2024/03/30 05:38:03;;;;;;;4.03;2.17;;;;;;;9.30;100.00;98947.25;5055674;28;20049;-62
2024/03/30 05:40:32;;;;;;;3.83;2.08;;;;;;;9.28;100.00;98952.28;5065013;28;20056;-62
2024/03/30 05:42:59;;;;;;;3.75;2.25;;;;;;;9.36;100.00;98950.56;5067008;28;20047;-65
2024/03/30 05:45:26;;;;;;;4.60;2.38;;;;;;;9.30;100.00;98957.44;5066476;28;20072;-61
2024/03/30 05:47:56;;;;;;;4.28;2.30;;;;;;;9.24;100.00;98958.84;5049028;28;20055;-61
2024/03/30 05:50:22;;;;;;;7.03;3.30;;;;;;;9.34;100.00;98950.91;5065908;28;20068;-61
2024/03/30 05:52:49;;;;;;;5.45;3.00;;;;;;;9.47;100.00;98962.63;5066303;28;20499;-62
2024/03/30 05:55:15;;;;;;;5.25;3.20;;;;;;;9.36;100.00;98965.09;5049644;28;20053;-61
2024/03/30 05:57:42;;;;;;;6.93;3.53;;;;;;;9.23;100.00;98974.50;5045920;28;20819;-61
2024/03/30 06:00:10;;;;;;;6.32;3.65;;;;;;;9.39;100.00;98975.41;5048665;28;20056;-61
2024/03/30 06:02:42;;;;;;;5.38;2.75;;;;;;;9.04;100.00;98985.31;5049890;28;20060;-63
2024/03/30 06:05:09;;;;;;;5.18;2.30;;;;;;;9.31;100.00;98989.28;5045332;28;20789;-62
2024/03/30 06:07:36;;;;;;;3.45;1.80;;;;;;;9.19;100.00;98994.78;5039951;28;20059;-65
2024/03/30 06:10:04;;;;;;;3.35;1.67;;;;;;;9.35;100.00;98984.66;5046667;28;20059;-63
2024/03/30 06:12:30;;;;;;;5.28;1.70;;;;;;;9.48;100.00;98981.56;5046671;28;20056;-63
2024/03/30 06:14:57;;;;;;;3.40;1.50;;;;;;;9.54;100.00;98973.84;5060439;28;20060;-62
2024/03/30 06:17:23;;;;;;;2.97;1.30;;;;;;;9.36;100.00;98976.09;5066418;28;20075;-63
2024/03/30 06:19:50;;;;;;;2.28;1.00;;;;;;;9.35;100.00;98976.41;5063893;28;20048;-63
2024/03/30 06:22:16;;;;;;;1.98;1.00;;;;;;;9.37;100.00;98980.44;5066113;28;20049;-62
2024/03/30 06:24:43;;;;;;;2.28;0.80;;;;;;;9.34;100.00;98985.81;5065857;28;20510;-63
2024/03/30 06:27:10;;;;;;;1.30;0.63;;;;;;;9.38;100.00;98984.00;5055133;28;20155;-63
2024/03/30 06:29:38;;;;;;;3.45;1.58;;;;;;;9.16;100.00;98987.22;5046267;28;20049;-62
2024/03/30 06:32:05;;;;;;;2.78;0.98;;;;;;;9.36;100.00;98978.03;5049126;28;20044;-62
2024/03/30 06:34:34;;;;;;;2.83;1.33;;;;;;;9.39;100.00;98971.84;5063652;28;20056;-63
2024/03/30 06:37:00;;;;;;;2.03;0.83;;;;;;;9.27;100.00;98980.91;5066046;28;20079;-62
2024/03/30 06:43:40;;;;;;;2.50;0.80;;;;;;;9.25;100.00;98988.69;5042659;28;20666;-62
2024/03/30 06:44:58;;;;;;;1.58;0.82;;;;;;;9.22;100.00;99005.09;5064162;28;20069;-62
2024/03/30 06:47:24;;;;;;;2.08;0.85;;;;;;;9.55;100.00;98991.94;5054745;28;20051;-61
2024/03/30 06:49:51;;;;;;;2.20;0.90;;;;;;;9.65;100.00;98985.94;5054811;28;20053;-62
2024/03/30 06:52:17;;;;;;;2.03;0.80;;;;;;;9.82;100.00;98958.16;5054920;28;20591;-61
2024/03/30 06:54:43;;;;;;;1.90;0.90;;;;;;;9.93;100.00;98940.81;5052338;28;20045;-61
2024/03/30 06:57:10;;;;;;;2.55;1.00;;;;;;;9.01;100.00;98959.31;5042907;28;20048;-62
2024/03/30 06:59:36;;;;;;;1.30;0.88;;;;;;;9.05;100.00;98986.88;5039505;28;20053;-62
2024/03/30 07:02:03;;;;;;;2.15;0.90;;;;;;;9.15;100.00;98999.38;5054885;28;20055;-62
2024/03/30 07:04:29;;;;;;;1.95;1.00;;;;;;;9.28;100.00;99004.50;5063153;28;20048;-62
2024/03/30 07:06:56;;;;;;;2.42;1.20;;;;;;;9.71;100.00;99021.09;5054283;28;20056;-61
2024/03/30 07:09:22;;;;;;;1.67;0.80;;;;;;;9.77;100.00;99029.91;5063640;28;20262;-62
2024/03/30 07:11:48;;;;;;;2.60;0.95;;;;;;;9.65;100.00;99029.94;5054294;28;20063;-63
2024/03/30 07:14:15;;;;;;;1.63;0.90;;;;;;;9.75;100.00;99037.69;5068090;28;20063;-62
2024/03/30 07:16:41;;;;;;;1.38;1.00;;;;;;;9.81;100.00;99055.56;5053032;28;20174;-62
2024/03/30 07:19:07;;;;;;;2.47;0.90;;;;;;;9.93;100.00;99058.25;5068235;28;20047;-62
2024/03/30 07:21:33;;;;;;;2.22;1.20;;;;;;;10.01;100.00;99049.84;5060342;28;20041;-62
2024/03/30 07:24:00;;;;;;;1.95;0.90;;;;;;;9.94;100.00;99049.66;5056768;28;20075;-63
2024/03/30 07:26:26;;;;;;;1.80;1.13;;;;;;;9.86;100.00;99052.56;5047093;28;20052;-62
2024/03/30 07:28:52;;;;;;;2.30;1.27;;;;;;;10.12;100.00;99051.00;5051926;28;20071;-61
2024/03/30 07:31:19;;;;;;;2.28;1.10;;;;;;;10.23;100.00;99043.03;5068360;28;20052;-62
2024/03/30 07:33:45;;;;;;;2.42;1.30;;;;;;;10.27;99.79;99048.63;5059029;28;20060;-63
2024/03/30 07:36:11;;;;;;;3.17;1.33;;;;;;;10.22;100.00;99037.91;5066591;28;20249;-62
2024/03/30 07:38:40;;;;;;;2.60;1.30;;;;;;;10.16;100.00;99029.09;5065417;28;20052;-62
2024/03/30 07:41:06;;;;;;;2.22;1.08;;;;;;;10.02;100.00;99004.69;5067249;28;20695;-63
2024/03/30 07:43:32;;;;;;;3.03;1.20;;;;;;;10.11;99.55;98975.09;5067744;28;20255;-61
2024/03/30 07:46:02;;;;;;;2.08;1.10;;;;;;;9.77;99.61;98985.91;5067476;28;20044;-63
2024/03/30 07:48:29;;;;;;;3.35;1.08;;;;;;;10.04;99.50;99005.13;5066442;28;20060;-61
2024/03/30 07:50:55;;;;;;;2.05;1.02;;;;;;;10.34;99.42;99026.81;5050651;28;20158;-62
2024/03/30 07:53:22;;;;;;;2.45;0.90;;;;;;;10.47;98.69;99028.34;5064204;28;20049;-63
2024/03/30 07:55:48;;;;;;;3.63;1.00;;;;;;;10.46;97.95;99029.50;5065301;28;20064;-60
2024/03/30 07:58:14;;;;;;;2.92;1.20;;;;;;;10.51;97.19;99029.22;5036490;28;20056;-61
2024/03/30 08:00:41;;;;;;;3.03;1.20;;;;;;;10.64;96.61;99015.03;5051483;28;20052;-62
2024/03/30 08:03:07;;;;;;;3.35;1.10;;;;;;;10.76;97.00;99025.13;5057604;28;20041;-61
2024/03/30 08:05:34;;;;;;;1.80;0.90;;;;;;;10.88;94.80;99025.84;5033721;28;20056;-61
2024/03/30 08:08:00;;;;;;;2.08;0.90;;;;;;;10.94;94.63;99026.38;5062088;28;20048;-62
2024/03/30 08:10:26;;;;;;;2.75;1.00;;;;;;;11.01;94.48;99049.41;5080841;28;20444;-61
2024/03/30 08:12:53;;;;;;;1.88;1.05;;;;;;;11.00;94.09;99063.53;5053917;28;20052;-63
2024/03/30 08:15:19;;;;;;;2.92;1.17;;;;;;;10.96;94.39;99068.97;5061560;28;20049;-62
2024/03/30 08:17:46;;;;;;;2.53;0.93;;;;;;;11.12;93.20;99066.97;5060309;28;20593;-62
2024/03/30 08:20:12;;;;;;;2.88;0.93;;;;;;;11.07;93.36;99067.25;5055508;28;20044;-62
2024/03/30 08:22:38;;;;;;;3.05;0.98;;;;;;;11.08;92.82;99073.56;5056741;28;20047;-63
2024/03/30 08:25:05;;;;;;;4.22;0.70;;;;;;;11.17;91.89;99080.50;5034145;28;20049;-62
2024/03/30 08:27:34;;;;;;;0.85;0.60;;;;;;;10.97;92.08;99084.31;5063044;28;20845;-62
2024/03/30 08:30:05;;;;;;;0.90;0.60;;;;;;;11.00;92.54;99091.88;5065975;28;20052;-62
2024/03/30 08:32:31;;;;;;;1.90;0.65;;;;;;;11.03;91.90;99102.22;5065018;28;20502;-61
2024/03/30 08:34:57;;;;;;;0.88;0.40;;;;;;;10.85;92.13;99086.38;5062003;28;20070;-61
2024/03/30 08:37:24;;;;;;;3.03;0.65;;;;;;;10.92;92.44;99092.88;5065142;28;20071;-60
2024/03/30 08:39:50;;;;;;;1.67;0.60;;;;;;;10.80;92.67;99095.69;5056904;28;20055;-61
2024/03/30 08:42:16;;;;;;;1.80;0.77;;;;;;;10.93;92.36;99102.72;5064288;28;20247;-62
2024/03/30 08:44:42;;;;;;;2.25;0.80;;;;;;;10.97;92.02;99116.56;5063412;28;20071;-62
2024/03/30 08:47:10;;;;;;;5.55;0.80;;;;;;;11.04;92.67;99131.34;5050939;28;20467;-61
2024/03/30 08:49:37;;;;;;;1.77;0.60;;;;;;;11.01;91.96;99131.25;5063200;28;20049;-60
2024/03/30 08:52:03;;;;;;;2.90;0.68;;;;;;;11.01;91.41;99123.81;5045671;28;20052;-61
2024/03/30 08:54:29;;;;;;;2.15;0.63;;;;;;;11.26;91.76;99138.22;5060384;28;20053;-61
2024/03/30 08:56:56;;;;;;;1.60;0.60;;;;;;;11.17;92.12;99148.59;5063519;28;20052;-61
2024/03/30 08:59:22;;;;;;;2.20;0.80;;;;;;;11.11;91.51;99142.56;5059620;28;20049;-61
2024/03/30 09:01:50;;;;;;;3.65;0.80;;;;;;;11.04;90.71;99150.63;5063668;28;20444;-61
2024/03/30 09:04:18;;;;;;;1.30;0.70;;;;;;;10.92;91.70;99149.91;5058102;28;20040;-61
2024/03/30 09:06:44;;;;;;;1.70;0.40;;;;;;;10.87;92.19;99142.72;5063442;28;20049;-61
2024/03/30 09:09:11;;;;;;;2.80;0.60;;;;;;;11.04;91.14;99156.16;5065885;28;20061;-60
2024/03/30 09:11:37;;;;;;;1.52;0.50;;;;;;;11.15;91.06;99159.97;5063295;28;20043;-60
2024/03/30 09:14:04;;;;;;;2.95;0.65;;;;;;;11.26;89.71;99166.53;5064259;28;20055;-61
2024/03/30 09:16:30;;;;;;;5.30;0.70;;;;;;;11.20;90.48;99172.69;5061226;28;20163;-60
2024/03/30 09:18:56;;;;;;;1.83;0.77;;;;;;;11.18;90.15;99175.81;5062408;28;20082;-61
2024/03/30 09:21:22;;;;;;;1.20;0.73;;;;;;;11.27;89.28;99178.38;5061751;28;20052;-61
2024/03/30 09:23:49;;;;;;;1.55;0.63;;;;;;;11.35;88.96;99180.16;5044011;28;20059;-61
2024/03/30 09:26:15;;;;;;;1.50;0.60;;;;;;;11.13;89.57;99186.28;5063036;28;20044;-61
2024/03/30 09:28:41;;;;;;;1.65;0.60;;;;;;;11.13;90.06;99183.53;5039373;28;20056;-61
2024/03/30 09:31:07;;;;;;;1.33;0.60;;;;;;;11.27;90.36;99178.38;5046719;28;20048;-61
2024/03/30 09:33:34;;;;;;;1.23;0.60;;;;;;;11.22;90.25;99184.16;5063170;28;20050;-61
2024/03/30 09:36:08;;;;;;;3.05;0.70;;;;;;;11.03;90.95;99184.06;5059942;28;20059;-61
2024/03/30 09:38:34;;;;;;;1.40;0.82;;;;;;;10.88;91.59;99190.34;5059609;28;20064;-61
2024/03/30 09:41:02;;;;;;;2.25;1.00;;;;;;;11.01;91.42;99192.69;5064936;28;20055;-62
2024/03/30 09:43:29;;;;;;;2.80;1.05;;;;;;;11.21;90.89;99197.13;5054119;28;20595;-62
2024/03/30 09:45:57;;;;;;;2.47;0.90;;;;;;;11.46;90.71;99191.44;5045850;28;20068;-61
2024/03/30 09:48:24;;;;;;;5.20;0.80;;;;;;;11.47;89.47;99196.63;5043405;28;20067;-60
2024/03/30 09:50:53;;;;;;;4.68;1.25;;;;;;;11.27;89.63;99208.69;5038274;28;20060;-60
2024/03/30 09:53:21;;;;;;;4.07;1.00;;;;;;;11.16;90.67;99205.66;5042298;28;20044;-61
2024/03/30 09:55:48;;;;;;;2.97;0.98;;;;;;;11.31;90.63;99202.13;5044996;28;20048;-60
2024/03/30 09:58:14;;;;;;;3.75;0.98;;;;;;;11.40;90.13;99201.97;5042593;28;20514;-60
2024/03/30 10:00:41;;;;;;;2.92;1.00;;;;;;;11.41;89.99;99205.50;5045720;28;20052;-61
2024/03/30 10:03:07;;;;;;;2.78;0.95;;;;;;;11.43;90.27;99209.50;5064848;28;20471;-61
2024/03/30 10:05:37;;;;;;;2.95;0.85;;;;;;;11.46;90.07;99199.72;5059716;28;20057;-60
2024/03/30 10:08:06;;;;;;;3.95;1.35;;;;;;;11.78;89.92;99198.59;5052800;28;20044;-63
2024/03/30 10:10:33;;;;;;;2.50;1.05;;;;;;;11.85;88.82;99196.81;5060868;28;20052;-62
2024/03/30 10:13:08;;;;;;;7.00;1.00;;;;;;;11.90;88.22;99192.94;5043708;28;20044;-62
2024/03/30 10:15:45;;;;;;;3.35;0.95;;;;;;;12.02;87.88;99185.38;5042607;28;20053;-62
2024/03/30 10:18:14;;;;;;;2.55;1.02;;;;;;;12.11;86.98;99185.16;5032339;28;20056;-61
2024/03/30 10:20:41;;;;;;;2.90;0.97;;;;;;;12.39;87.16;99192.13;5043136;28;20075;-61
2024/03/30 10:23:07;;;;;;;4.97;1.20;;;;;;;12.30;85.90;99187.94;5063579;28;20044;-60
2024/03/30 10:25:37;;;;;;;3.67;0.73;;;;;;;12.48;85.79;99187.16;5044199;28;20053;-61
2024/03/30 10:28:06;;;;;;;5.07;0.82;;;;;;;12.41;84.79;99189.75;5053314;28;20214;-60
2024/03/30 10:30:33;;;;;;;2.83;1.07;;;;;;;12.53;84.64;99186.06;5067444;28;20518;-60
2024/03/30 10:33:10;;;;;;;3.17;0.90;;;;;;;12.49;84.43;99185.19;5052824;28;20048;-61
2024/03/30 10:35:37;;;;;;;4.65;1.50;;;;;;;12.49;83.03;99190.72;5065375;28;20057;-60
2024/03/30 10:38:05;;;;;;;2.75;0.90;;;;;;;12.42;83.70;99182.28;5052135;28;20053;-60
2024/03/30 10:40:36;;;;;;;1.73;0.90;;;;;;;12.56;84.12;99185.34;5048734;28;20068;-59
2024/03/30 10:43:02;;;;;;;6.10;0.95;;;;;;;12.73;83.11;99181.31;5052817;28;20381;-64
2024/03/30 10:45:28;;;;;;;5.13;1.20;;;;;;;12.88;83.24;99183.22;5061903;28;20103;-61
2024/03/30 10:47:55;;;;;;;5.53;2.60;;;;;;;12.95;81.48;99188.88;5049259;28;20057;-64
2024/03/30 10:50:21;;;;;;;4.47;1.80;;;;;;;12.73;81.33;99190.41;5061355;28;20056;-60
2024/03/30 10:52:48;;;;;;;4.68;2.20;;;;;;;12.65;82.19;99196.16;5052514;28;20048;-60
2024/03/30 10:55:18;;;;;;;3.03;1.27;;;;;;;12.73;83.10;99198.72;5052807;28;20048;-61
2024/03/30 10:57:44;;;;;;;2.47;0.80;;;;;;;13.17;82.45;99191.72;5069146;28;20534;-61
2024/03/30 11:00:12;;;;;;;2.85;1.17;;;;;;;13.48;81.25;99197.00;5068556;28;20056;-61
2024/03/30 11:02:40;;;;;;;1.40;0.70;;;;;;;13.51;80.21;99193.47;5069056;28;20040;-60
2024/03/30 11:05:08;;;;;;;4.18;1.00;;;;;;;13.43;79.24;99194.53;5068820;28;20059;-61
2024/03/30 11:07:38;;;;;;;3.45;0.95;;;;;;;13.48;79.47;99194.22;5068799;28;20064;-61
2024/03/30 11:10:05;;;;;;;1.73;0.55;;;;;;;13.50;79.43;99185.56;5062092;28;20060;-60
2024/03/30 11:12:33;;;;;;;4.38;1.00;;;;;;;13.29;78.17;99176.88;5049262;28;20048;-59
2024/03/30 11:15:00;;;;;;;2.88;0.93;;;;;;;13.50;78.92;99180.03;5061792;28;20052;-62
2024/03/30 11:17:31;;;;;;;2.03;0.98;;;;;;;13.68;77.99;99181.13;5047526;28;20063;-60
2024/03/30 11:20:13;;;;;;;3.53;1.05;;;;;;;13.83;76.77;99168.28;5061362;28;20056;-60
2024/03/30 11:22:48;;;;;;;3.72;1.17;;;;;;;13.72;76.05;99170.88;5061884;28;20048;-60
2024/03/30 11:25:17;;;;;;;4.60;1.25;;;;;;;13.40;76.60;99181.47;5058388;28;20095;-61
2024/03/30 11:27:49;;;;;;;3.97;1.30;;;;;;;13.63;76.12;99180.63;5048324;28;20056;-61
2024/03/30 11:30:27;;;;;;;3.70;1.20;;;;;;;13.24;76.39;99180.78;5048338;28;20049;-60
2024/03/30 11:33:00;;;;;;;3.17;1.10;;;;;;;13.43;76.63;99180.72;5058766;28;20048;-60
2024/03/30 11:35:31;;;;;;;3.38;0.90;;;;;;;13.48;76.64;99191.47;5031308;28;20600;-60
2024/03/30 11:38:01;;;;;;;4.35;1.00;;;;;;;13.39;76.50;99192.88;5049134;28;20429;-61